Omaha — WDC9423 — position and weather

sailwx.info

Track history (hours):
 
Tides and Currents Weather Stations Pressure Air Temp Water Temp Dewpoint Dewpoint Depression Visibility Wind Speed Wind Dir Waves Ship Positions

Omaha

Owner: Turn services, Inc, New Orleans, LA. More information available from US FCC via Universal Licensing System and Coast Guard Vessel Documentation Center.

Last reported at 2015-Jul-07 00:33 UTC. Time now 2015-Jul-07 17:36 UTC.
Position N 29°55' W 089°56'.

Length 13 m; draft 3.5 m.

Type: Pilot. MMSI: 367102030.

Date/timePositionNaut miles runAvg speedWind from/ knotsBaromVisibWave heightAir tempDewpointWater temp
2015-Jul-07 00:33N 29°55' W 089°56'0 0.1
2015-Jul-06 18:21N 29°55' W 089°56'1 0.2
2015-Jul-06 15:23N 29°55' W 089°56'1 0.5
2015-Jul-06 14:04N 29°55' W 089°56'0 0.5
2015-Jul-06 13:28N 29°55' W 089°56'0 0.0
2015-Jul-06 12:16N 29°55' W 089°56'1 0.6
2015-Jul-06 11:11N 29°55' W 089°56'1 0.1
2015-Jul-06 06:18N 29°55' W 089°56'0 0.1
2015-Jul-06 01:16N 29°55' W 089°56'0 0.3
2015-Jul-06 00:18N 29°55' W 089°56'0 0.2
2015-Jul-05 23:17N 29°55' W 089°56'0 0.1
2015-Jul-05 22:23N 29°55' W 089°56'0 0.0
2015-Jul-05 12:24N 29°55' W 089°56'0 0.0
2015-Jul-05 00:25N 29°55' W 089°56'0 0.0
2015-Jul-04 20:25N 29°55' W 089°56'3 2.1
2015-Jul-04 19:04N 29°56' W 089°59'4 7.0
2015-Jul-04 18:28N 29°57' W 090°04'4 1.1
2015-Jul-04 14:31N 29°56' W 090°08'4 3.9
2015-Jul-04 13:27N 29°57' W 090°04'5 4.4
2015-Jul-04 12:25N 29°56' W 089°59'0 0.0
2015-Jul-03 15:33N 29°56' W 089°59'1 0.4
2015-Jul-03 12:22N 29°55' W 089°58'2 2.1
2015-Jul-03 11:33N 29°56' W 089°59'1 0.6
2015-Jul-03 10:24N 29°56' W 090°00'4 3.6
2015-Jul-03 09:26N 29°55' W 090°04'  
2015-Jul-01 05:14N 29°55' W 089°56'2 3.0
2015-Jul-01 04:31N 29°56' W 089°59'1 1.1
2015-Jul-01 03:30N 29°55' W 089°58'1 1.1
2015-Jul-01 02:33N 29°55' W 089°56'0 0.0
2015-Jul-01 01:29N 29°55' W 089°56'0 0.2
2015-Jul-01 00:31N 29°55' W 089°56'0 0.0
2015-Jun-29 10:23N 29°55' W 089°56'0 0.0
2015-Jun-28 11:31N 29°55' W 089°56'0 0.0
2015-Jun-28 00:21N 29°55' W 089°56'0 0.0
2015-Jun-27 22:29N 29°55' W 089°56'2 0.1
2015-Jun-27 05:28N 29°56' W 089°58'2 0.8
2015-Jun-27 03:33N 29°55' W 089°57'1 0.9
2015-Jun-27 02:26N 29°55' W 089°58'2 1.8
2015-Jun-27 01:30N 29°56' W 089°60'  
Track history (hours):
 
Tides and Currents Weather Stations Pressure Air Temp Water Temp Dewpoint Dewpoint Depression Visibility Wind Speed Wind Dir Waves Ship Positions

Omaha

Owner: Turn services, Inc, New Orleans, LA. More information available from US FCC via Universal Licensing System and Coast Guard Vessel Documentation Center.

Last reported at 2015-Jul-07 00:33 UTC. Time now 2015-Jul-07 17:36 UTC.
Position N 29°55' W 089°56'.

Length 13 m; draft 3.5 m.

Type: Pilot. MMSI: 367102030.

Date/timePositionNaut miles runAvg speedWind from/ knotsBaromVisibWave heightAir tempDewpointWater temp
2015-Jul-07 00:33N 29°55' W 089°56'0 0.1
2015-Jul-06 18:21N 29°55' W 089°56'1 0.2
2015-Jul-06 15:23N 29°55' W 089°56'1 0.5
2015-Jul-06 14:04N 29°55' W 089°56'0 0.5
2015-Jul-06 13:28N 29°55' W 089°56'0 0.0
2015-Jul-06 12:16N 29°55' W 089°56'1 0.6
2015-Jul-06 11:11N 29°55' W 089°56'1 0.1
2015-Jul-06 06:18N 29°55' W 089°56'0 0.1
2015-Jul-06 01:16N 29°55' W 089°56'0 0.3
2015-Jul-06 00:18N 29°55' W 089°56'0 0.2
2015-Jul-05 23:17N 29°55' W 089°56'0 0.1
2015-Jul-05 22:23N 29°55' W 089°56'0 0.0
2015-Jul-05 12:24N 29°55' W 089°56'0 0.0
2015-Jul-05 00:25N 29°55' W 089°56'0 0.0
2015-Jul-04 20:25N 29°55' W 089°56'3 2.1
2015-Jul-04 19:04N 29°56' W 089°59'4 7.0
2015-Jul-04 18:28N 29°57' W 090°04'4 1.1
2015-Jul-04 14:31N 29°56' W 090°08'4 3.9
2015-Jul-04 13:27N 29°57' W 090°04'5 4.4
2015-Jul-04 12:25N 29°56' W 089°59'0 0.0
2015-Jul-03 15:33N 29°56' W 089°59'1 0.4
2015-Jul-03 12:22N 29°55' W 089°58'2 2.1
2015-Jul-03 11:33N 29°56' W 089°59'1 0.6
2015-Jul-03 10:24N 29°56' W 090°00'4 3.6
2015-Jul-03 09:26N 29°55' W 090°04'  
2015-Jul-01 05:14N 29°55' W 089°56'2 3.0
2015-Jul-01 04:31N 29°56' W 089°59'1 1.1
2015-Jul-01 03:30N 29°55' W 089°58'1 1.1
2015-Jul-01 02:33N 29°55' W 089°56'0 0.0
2015-Jul-01 01:29N 29°55' W 089°56'0 0.2
2015-Jul-01 00:31N 29°55' W 089°56'0 0.0
2015-Jun-29 10:23N 29°55' W 089°56'0 0.0
2015-Jun-28 11:31N 29°55' W 089°56'0 0.0
2015-Jun-28 00:21N 29°55' W 089°56'0 0.0
2015-Jun-27 22:29N 29°55' W 089°56'2 0.1
2015-Jun-27 05:28N 29°56' W 089°58'2 0.8
2015-Jun-27 03:33N 29°55' W 089°57'1 0.9
2015-Jun-27 02:26N 29°55' W 089°58'2 1.8
2015-Jun-27 01:30N 29°56' W 089°60'  

Dump ship's entire track history